Time;durP1;ratioP1;P1;durP2;ratioP2;P2;SDS_P1;SDS_P2;PMS_P1;PMS_P2;Temp;Humidity;BMP_temperature;BMP_pressure;BME280_temperature;BME280_humidity;BME280_pressure;Samples;Min_cycle;Max_cycle;Signal;HPM_P1;HPM_P2
2022/03/05 00:01:58;;;;;;;0.30;0.30;;;0.50;60.80;;;;;;4993868;28;20180;-67
2022/03/05 00:04:24;;;;;;;0.50;0.50;;;0.50;60.10;;;;;;4995144;28;20224;-68
2022/03/05 00:06:50;;;;;;;0.30;0.30;;;0.50;60.80;;;;;;4998301;28;20198;-67
2022/03/05 00:09:19;;;;;;;0.40;0.40;;;0.50;60.40;;;;;;4998311;28;20230;-68
2022/03/05 00:11:45;;;;;;;0.52;0.52;;;0.50;60.50;;;;;;4997677;28;20654;-68
2022/03/05 00:14:10;;;;;;;0.40;0.40;;;0.50;60.20;;;;;;4997897;28;20287;-68
2022/03/05 00:16:36;;;;;;;0.40;0.40;;;0.50;60.00;;;;;;4980422;28;20176;-68
2022/03/05 00:19:02;;;;;;;0.30;0.30;;;0.40;60.00;;;;;;4997749;28;20200;-67
2022/03/05 00:21:28;;;;;;;0.40;0.40;;;0.40;60.40;;;;;;4997716;28;20180;-68
2022/03/05 00:23:54;;;;;;;0.50;0.50;;;0.40;60.90;;;;;;4997705;28;20241;-67
2022/03/05 00:26:20;;;;;;;0.50;0.50;;;0.40;60.20;;;;;;4997708;28;20165;-67
2022/03/05 00:28:45;;;;;;;0.60;0.60;;;0.30;60.40;;;;;;4997878;28;20737;-68
2022/03/05 00:31:11;;;;;;;0.50;0.50;;;0.40;61.30;;;;;;4997545;28;20681;-68
2022/03/05 00:33:37;;;;;;;0.40;0.40;;;0.40;61.10;;;;;;4997650;28;20206;-68
2022/03/05 00:36:03;;;;;;;0.83;0.83;;;0.40;61.70;;;;;;4997577;28;20164;-69
2022/03/05 00:38:28;;;;;;;0.40;0.40;;;0.30;61.70;;;;;;4997711;28;20643;-68
2022/03/05 00:40:54;;;;;;;0.97;0.97;;;0.30;61.60;;;;;;4997273;28;20196;-68
2022/03/05 00:43:20;;;;;;;0.40;0.40;;;0.30;60.80;;;;;;4997544;28;20943;-67
2022/03/05 00:45:46;;;;;;;0.50;0.50;;;0.30;60.40;;;;;;4997605;28;20171;-68
2022/03/05 00:48:11;;;;;;;0.40;0.40;;;0.30;60.80;;;;;;4997419;28;20204;-68
2022/03/05 00:50:39;;;;;;;0.40;0.40;;;0.30;60.90;;;;;;4997213;28;20917;-67
2022/03/05 00:53:05;;;;;;;0.50;0.50;;;0.30;61.10;;;;;;4979833;28;20670;-67
2022/03/05 00:55:31;;;;;;;0.40;0.40;;;0.30;61.50;;;;;;4997192;28;20617;-67
2022/03/05 00:57:56;;;;;;;0.57;0.57;;;0.30;61.60;;;;;;4997150;28;20171;-67
2022/03/05 01:00:22;;;;;;;0.40;0.40;;;0.20;61.60;;;;;;4997071;28;20700;-67
2022/03/05 01:02:48;;;;;;;0.60;0.60;;;0.10;61.10;;;;;;4997092;28;20540;-68
2022/03/05 01:05:14;;;;;;;0.40;0.40;;;0.20;61.60;;;;;;4997029;28;20845;-68
2022/03/05 01:07:39;;;;;;;0.80;0.80;;;0.20;61.80;;;;;;4997214;28;20164;-67
2022/03/05 01:10:06;;;;;;;1.00;1.00;;;0.20;61.80;;;;;;4996936;28;20563;-68
2022/03/05 01:12:32;;;;;;;0.50;0.50;;;0.20;61.90;;;;;;4996669;28;20195;-68
2022/03/05 01:14:57;;;;;;;0.50;0.50;;;0.20;61.60;;;;;;4996882;28;20522;-68
2022/03/05 01:17:23;;;;;;;0.40;0.40;;;0.20;61.70;;;;;;4996236;28;20179;-67
2022/03/05 01:19:49;;;;;;;0.53;0.53;;;0.10;61.30;;;;;;4996939;28;20247;-68
2022/03/05 01:22:15;;;;;;;0.50;0.50;;;0.00;61.30;;;;;;4996738;28;20160;-67
2022/03/05 01:24:40;;;;;;;0.50;0.50;;;-0.40;61.60;;;;;;4996799;28;20196;-67
2022/03/05 01:27:06;;;;;;;0.60;0.60;;;-0.50;62.60;;;;;;4996578;28;20407;-67
2022/03/05 01:29:32;;;;;;;0.40;0.40;;;-0.60;62.20;;;;;;4996687;28;20836;-68
2022/03/05 01:31:58;;;;;;;0.67;0.67;;;-0.50;62.50;;;;;;4996555;28;20408;-68
2022/03/05 01:34:23;;;;;;;0.40;0.40;;;-0.40;62.00;;;;;;4996540;28;20661;-68
2022/03/05 01:36:49;;;;;;;0.40;0.40;;;-0.40;62.50;;;;;;4996788;28;20204;-67
2022/03/05 01:39:16;;;;;;;0.50;0.50;;;-0.20;62.20;;;;;;4996518;28;20202;-67
2022/03/05 01:41:44;;;;;;;0.40;0.40;;;-0.10;62.20;;;;;;4996354;28;20200;-67
2022/03/05 01:44:10;;;;;;;0.40;0.40;;;-0.10;62.80;;;;;;4996478;28;20196;-68
2022/03/05 01:46:38;;;;;;;0.40;0.40;;;-0.10;62.50;;;;;;4996493;28;20168;-67
2022/03/05 01:49:06;;;;;;;0.57;0.57;;;-0.20;62.70;;;;;;4996522;28;20545;-68
2022/03/05 01:51:32;;;;;;;0.40;0.40;;;-0.40;62.60;;;;;;4996037;28;20543;-69
2022/03/05 01:53:58;;;;;;;0.60;0.60;;;-0.40;63.20;;;;;;4996057;28;20188;-68
2022/03/05 01:56:27;;;;;;;0.40;0.40;;;-0.30;63.30;;;;;;4996341;28;20185;-68
2022/03/05 01:58:53;;;;;;;0.55;0.55;;;-0.20;63.40;;;;;;4996054;28;20203;-68
2022/03/05 02:01:23;;;;;;;0.40;0.40;;;-0.20;64.10;;;;;;4995958;28;20259;-68
2022/03/05 02:03:50;;;;;;;0.82;0.82;;;-0.20;64.30;;;;;;4995901;28;20415;-68
2022/03/05 02:06:16;;;;;;;0.50;0.50;;;-0.30;64.00;;;;;;4995879;28;20172;-68
2022/03/05 02:08:41;;;;;;;0.40;0.40;;;-0.30;63.50;;;;;;4996102;28;20168;-67
2022/03/05 02:11:07;;;;;;;0.50;0.50;;;-0.40;63.60;;;;;;4995580;28;20212;-68
2022/03/05 02:13:33;;;;;;;0.40;0.40;;;-0.40;63.70;;;;;;4995961;28;20215;-68
2022/03/05 02:15:59;;;;;;;0.50;0.50;;;-0.40;63.80;;;;;;4995932;28;20172;-68
2022/03/05 02:18:25;;;;;;;0.60;0.60;;;-0.30;64.00;;;;;;4978334;28;20422;-68
2022/03/05 02:20:52;;;;;;;0.40;0.40;;;-0.30;63.50;;;;;;4995445;28;20235;-67
2022/03/05 02:23:18;;;;;;;0.40;0.40;;;-0.40;63.40;;;;;;4995792;28;20271;-68
2022/03/05 02:25:51;;;;;;;0.50;0.50;;;-0.40;63.60;;;;;;4995564;28;20693;-67
2022/03/05 02:28:18;;;;;;;0.40;0.40;;;-0.50;64.70;;;;;;4994567;28;20199;-67
2022/03/05 02:30:44;;;;;;;0.30;0.30;;;-0.40;63.50;;;;;;4995362;28;20191;-67
2022/03/05 02:33:09;;;;;;;0.40;0.40;;;-0.40;63.00;;;;;;4995460;28;20196;-67
2022/03/05 02:35:35;;;;;;;0.60;0.60;;;-0.40;63.40;;;;;;4995284;28;20172;-67
2022/03/05 02:38:01;;;;;;;0.40;0.40;;;-0.30;63.10;;;;;;4995593;28;20184;-68
2022/03/05 02:40:26;;;;;;;0.50;0.50;;;-0.30;62.40;;;;;;4995227;28;20203;-68
2022/03/05 02:42:52;;;;;;;0.40;0.40;;;-0.20;62.80;;;;;;4995241;28;20187;-68
2022/03/05 02:45:18;;;;;;;0.30;0.30;;;-0.30;62.50;;;;;;4995327;28;20160;-67
2022/03/05 02:47:43;;;;;;;0.40;0.40;;;-0.30;62.40;;;;;;4995323;28;20218;-68
2022/03/05 02:50:09;;;;;;;0.40;0.40;;;-0.30;62.50;;;;;;4995055;28;20168;-68
2022/03/05 02:52:39;;;;;;;0.30;0.30;;;-0.30;65.80;;;;;;4994985;28;20168;-67
2022/03/05 02:55:05;;;;;;;0.43;0.43;;;-0.30;63.00;;;;;;4995019;28;20191;-67
2022/03/05 02:57:31;;;;;;;0.40;0.40;;;-0.30;62.70;;;;;;4995007;28;20238;-67
2022/03/05 02:59:57;;;;;;;0.30;0.30;;;-0.30;62.70;;;;;;4994967;28;20196;-67
2022/03/05 03:02:22;;;;;;;0.40;0.40;;;-0.40;63.00;;;;;;4994938;28;20399;-67
2022/03/05 03:04:48;;;;;;;0.60;0.60;;;-0.40;63.10;;;;;;4994940;28;20184;-68
2022/03/05 03:07:14;;;;;;;0.60;0.60;;;-0.40;63.30;;;;;;4994694;28;20396;-68
2022/03/05 03:09:40;;;;;;;0.50;0.50;;;-0.40;63.50;;;;;;4994694;28;20187;-67
2022/03/05 03:12:06;;;;;;;0.60;0.60;;;-0.50;63.70;;;;;;4994406;28;20188;-68
2022/03/05 03:14:31;;;;;;;0.50;0.50;;;-0.50;64.80;;;;;;4994508;28;20200;-67
2022/03/05 03:16:57;;;;;;;0.30;0.30;;;-0.50;64.30;;;;;;4994786;28;20172;-67
2022/03/05 03:19:23;;;;;;;0.50;0.50;;;-0.50;64.60;;;;;;4994658;28;20192;-67
2022/03/05 03:21:49;;;;;;;0.40;0.40;;;-0.50;64.40;;;;;;4994435;28;20507;-67
2022/03/05 03:24:14;;;;;;;0.40;0.40;;;-0.50;64.40;;;;;;4994474;28;20271;-68
2022/03/05 03:26:40;;;;;;;0.53;0.53;;;-0.50;64.30;;;;;;4994547;28;20168;-68
2022/03/05 03:29:06;;;;;;;0.53;0.53;;;-0.60;63.50;;;;;;4994368;28;20183;-67
2022/03/05 03:31:31;;;;;;;0.50;0.50;;;-0.60;63.80;;;;;;4994420;28;20171;-68
2022/03/05 03:33:57;;;;;;;0.50;0.50;;;-0.60;63.60;;;;;;4994282;28;20215;-68
2022/03/05 03:36:22;;;;;;;0.70;0.70;;;-0.70;63.60;;;;;;4994362;28;20168;-68
2022/03/05 03:38:48;;;;;;;0.43;0.43;;;-0.80;64.20;;;;;;4994144;28;20169;-68
2022/03/05 03:41:14;;;;;;;0.50;0.50;;;-0.70;64.10;;;;;;4994093;28;20191;-68
2022/03/05 03:43:39;;;;;;;0.60;0.60;;;-0.70;63.70;;;;;;4994337;28;20184;-67
2022/03/05 03:46:05;;;;;;;0.47;0.47;;;-0.70;63.90;;;;;;4976697;28;20630;-68
2022/03/05 03:48:30;;;;;;;0.60;0.60;;;-0.70;64.40;;;;;;4994377;28;20194;-67
2022/03/05 03:50:56;;;;;;;0.50;0.50;;;-0.70;63.90;;;;;;4994162;28;20176;-68
2022/03/05 03:53:22;;;;;;;0.50;0.50;;;-0.70;64.60;;;;;;4994103;28;20700;-67
2022/03/05 03:55:48;;;;;;;0.70;0.70;;;-0.70;65.10;;;;;;4994052;28;20255;-68
2022/03/05 03:58:13;;;;;;;0.70;0.70;;;-0.70;65.30;;;;;;4994264;28;20176;-68
2022/03/05 04:00:39;;;;;;;0.50;0.50;;;-0.80;65.20;;;;;;4976509;28;20212;-68
2022/03/05 04:03:05;;;;;;;0.50;0.50;;;-0.80;65.10;;;;;;4993877;28;20257;-67
2022/03/05 04:05:31;;;;;;;0.50;0.50;;;-0.90;64.40;;;;;;4976550;28;20180;-67
2022/03/05 04:10:40;;;;;;;0.50;0.50;;;-0.90;64.30;;;;;;4993937;28;20230;-67
2022/03/05 04:13:06;;;;;;;0.50;0.50;;;-0.90;64.70;;;;;;4993950;28;20215;-67
2022/03/05 04:15:33;;;;;;;0.50;0.50;;;-0.80;64.50;;;;;;4993753;28;20203;-68
2022/03/05 04:17:59;;;;;;;0.60;0.60;;;-0.70;64.50;;;;;;4994100;28;20183;-67
2022/03/05 04:20:25;;;;;;;0.60;0.60;;;-0.80;64.00;;;;;;4993587;28;20549;-68
2022/03/05 04:22:51;;;;;;;0.40;0.40;;;-1.00;63.30;;;;;;4993809;28;20238;-68
2022/03/05 04:25:16;;;;;;;0.40;0.40;;;-1.10;64.80;;;;;;4993868;28;20498;-68
2022/03/05 04:27:42;;;;;;;0.53;0.53;;;-1.00;64.60;;;;;;4994005;28;20172;-68
2022/03/05 04:30:09;;;;;;;0.50;0.50;;;-1.00;64.60;;;;;;4993554;28;20176;-68
2022/03/05 04:32:35;;;;;;;0.40;0.40;;;-1.00;64.20;;;;;;4993891;28;20209;-68
2022/03/05 04:35:01;;;;;;;0.60;0.60;;;-0.90;64.40;;;;;;4993890;28;20203;-68
2022/03/05 04:37:26;;;;;;;0.50;0.50;;;-0.80;64.50;;;;;;4993828;28;20589;-68
2022/03/05 04:39:52;;;;;;;0.57;0.57;;;-0.80;65.00;;;;;;4993711;28;20199;-68
2022/03/05 04:42:18;;;;;;;0.60;0.60;;;-0.80;65.20;;;;;;4993859;28;20534;-68
2022/03/05 04:44:43;;;;;;;0.50;0.50;;;-0.90;64.80;;;;;;4993619;28;20442;-67
2022/03/05 04:47:09;;;;;;;0.60;0.60;;;-0.90;64.60;;;;;;4993831;28;20175;-68
2022/03/05 04:49:34;;;;;;;0.57;0.57;;;-0.90;64.10;;;;;;4993677;28;20172;-68
2022/03/05 04:52:00;;;;;;;0.70;0.70;;;-0.90;63.80;;;;;;4995447;28;20549;-68
2022/03/05 04:54:29;;;;;;;0.50;0.50;;;-0.90;63.60;;;;;;4997238;28;20227;-68
2022/03/05 04:56:56;;;;;;;0.60;0.60;;;-0.90;62.90;;;;;;4997355;28;20176;-68
2022/03/05 04:59:22;;;;;;;0.40;0.40;;;-0.90;63.10;;;;;;4997056;28;20214;-67
2022/03/05 05:01:47;;;;;;;0.57;0.57;;;-0.90;63.60;;;;;;4997324;28;20160;-68
2022/03/05 05:04:13;;;;;;;0.60;0.60;;;-0.90;64.20;;;;;;4996987;28;20275;-68
2022/03/05 05:06:38;;;;;;;0.63;0.63;;;-0.90;63.60;;;;;;4997152;28;20172;-68
2022/03/05 05:09:04;;;;;;;0.53;0.53;;;-0.90;63.60;;;;;;4997127;28;20573;-67
2022/03/05 05:11:30;;;;;;;0.63;0.63;;;-0.90;63.80;;;;;;4996418;28;20525;-67
2022/03/05 05:13:56;;;;;;;0.60;0.60;;;-1.00;63.30;;;;;;4997060;28;20194;-68
2022/03/05 05:16:21;;;;;;;0.50;0.50;;;-1.00;63.60;;;;;;4996921;28;20247;-67
2022/03/05 05:21:32;;;;;;;0.60;0.60;;;-1.10;63.10;;;;;;4996886;28;20207;-68
2022/03/05 05:23:57;;;;;;;0.50;0.50;;;-1.10;64.10;;;;;;4979211;28;20693;-68
2022/03/05 05:26:23;;;;;;;0.50;0.50;;;-1.10;64.50;;;;;;4996637;28;20415;-68
2022/03/05 05:28:49;;;;;;;0.40;0.40;;;-1.10;63.80;;;;;;4996693;28;20168;-67
2022/03/05 05:31:14;;;;;;;0.43;0.43;;;-1.00;63.40;;;;;;4996525;28;20175;-67
2022/03/05 05:33:44;;;;;;;0.50;0.50;;;-1.10;63.30;;;;;;4979181;28;20215;-67
2022/03/05 05:36:13;;;;;;;0.57;0.57;;;-1.10;63.20;;;;;;4996469;28;20207;-68
2022/03/05 05:38:39;;;;;;;0.60;0.60;;;-1.10;62.90;;;;;;4996422;28;20532;-67
2022/03/05 05:41:06;;;;;;;0.60;0.60;;;-1.10;63.40;;;;;;4996330;28;20603;-67
2022/03/05 05:43:31;;;;;;;0.70;0.70;;;-1.10;63.20;;;;;;4996285;28;20234;-67
2022/03/05 05:45:57;;;;;;;0.60;0.60;;;-1.00;63.10;;;;;;4996423;28;20213;-69
2022/03/05 05:48:23;;;;;;;0.53;0.53;;;-1.00;62.70;;;;;;4996378;28;20179;-67
2022/03/05 05:50:48;;;;;;;0.70;0.70;;;-1.00;62.20;;;;;;4996096;28;20634;-68
2022/03/05 05:53:14;;;;;;;0.70;0.70;;;-1.00;61.70;;;;;;4996174;28;20239;-68
2022/03/05 05:55:40;;;;;;;0.50;0.50;;;-1.00;61.40;;;;;;4996376;28;20184;-68
2022/03/05 05:58:06;;;;;;;0.50;0.50;;;-1.00;60.90;;;;;;4996111;28;20187;-67
2022/03/05 06:00:31;;;;;;;0.40;0.40;;;-1.00;61.00;;;;;;4995968;28;20468;-68
2022/03/05 06:02:57;;;;;;;0.40;0.40;;;-0.90;61.10;;;;;;4995928;28;20196;-68
2022/03/05 06:05:23;;;;;;;0.60;0.60;;;-1.00;60.60;;;;;;4996152;28;20202;-68
2022/03/05 06:07:48;;;;;;;0.50;0.50;;;-0.90;61.30;;;;;;4996055;28;20652;-67
2022/03/05 06:10:14;;;;;;;0.60;0.60;;;-0.90;60.20;;;;;;4996127;28;20246;-68
2022/03/05 06:12:40;;;;;;;0.70;0.70;;;-0.90;60.30;;;;;;4995718;28;20230;-68
2022/03/05 06:15:08;;;;;;;0.60;0.60;;;-0.90;60.90;;;;;;4995780;28;20207;-67
2022/03/05 06:17:34;;;;;;;0.50;0.50;;;-0.90;61.10;;;;;;4995830;28;20175;-67
2022/03/05 06:20:00;;;;;;;0.70;0.70;;;-1.00;61.40;;;;;;4995611;28;20234;-68
2022/03/05 06:22:26;;;;;;;0.63;0.63;;;-1.00;61.60;;;;;;4995814;28;20521;-67
2022/03/05 06:24:52;;;;;;;0.50;0.50;;;-0.90;61.70;;;;;;4995575;28;20808;-67
2022/03/05 06:27:18;;;;;;;0.63;0.63;;;-1.00;60.70;;;;;;4995919;28;20180;-67
2022/03/05 06:29:44;;;;;;;0.50;0.50;;;-1.00;61.10;;;;;;4995547;28;20234;-68
2022/03/05 06:32:09;;;;;;;0.50;0.50;;;-1.00;60.20;;;;;;4995364;28;20474;-67
2022/03/05 06:34:36;;;;;;;0.40;0.40;;;-0.90;60.30;;;;;;4995390;28;20441;-68
2022/03/05 06:37:01;;;;;;;0.55;0.55;;;-0.80;60.10;;;;;;4995462;28;20187;-68
2022/03/05 06:39:27;;;;;;;0.60;0.60;;;-0.70;60.40;;;;;;4995382;28;20208;-68
2022/03/05 06:41:53;;;;;;;0.50;0.50;;;-0.70;60.20;;;;;;4995049;28;20188;-68
2022/03/05 06:44:18;;;;;;;0.60;0.60;;;-0.70;59.60;;;;;;4995172;28;20419;-67
2022/03/05 06:46:44;;;;;;;0.70;0.70;;;-0.70;58.90;;;;;;4995231;28;20172;-68
2022/03/05 06:49:10;;;;;;;0.50;0.50;;;-0.70;59.10;;;;;;4995278;28;20168;-67
2022/03/05 06:51:35;;;;;;;0.60;0.60;;;-0.70;58.50;;;;;;4994856;28;20243;-67
2022/03/05 06:54:01;;;;;;;0.40;0.40;;;-0.50;58.70;;;;;;4994971;28;20196;-67
2022/03/05 06:56:26;;;;;;;0.60;0.60;;;-0.50;57.90;;;;;;4995212;28;20180;-67
2022/03/05 06:58:52;;;;;;;0.50;0.50;;;-0.30;58.10;;;;;;4994991;28;20180;-67
2022/03/05 07:01:18;;;;;;;0.40;0.40;;;-0.30;58.10;;;;;;4994619;28;20204;-67
2022/03/05 07:03:44;;;;;;;0.40;0.40;;;-0.20;57.90;;;;;;4994802;28;20276;-68
2022/03/05 07:06:09;;;;;;;0.50;0.50;;;-0.20;57.40;;;;;;4994872;28;20226;-68
2022/03/05 07:08:36;;;;;;;0.70;0.70;;;-0.30;57.30;;;;;;4994968;28;20199;-67
2022/03/05 07:11:02;;;;;;;0.60;0.60;;;-0.40;57.10;;;;;;4994524;28;20255;-68
2022/03/05 07:13:28;;;;;;;0.47;0.47;;;-0.40;56.90;;;;;;4994416;28;20223;-67
2022/03/05 07:15:54;;;;;;;0.50;0.50;;;-0.50;56.60;;;;;;4994408;28;20443;-67
2022/03/05 07:18:19;;;;;;;0.50;0.50;;;-0.40;56.50;;;;;;4994860;28;20256;-67
2022/03/05 07:20:45;;;;;;;0.40;0.40;;;0.10;58.10;;;;;;4994452;28;20224;-68
2022/03/05 07:23:11;;;;;;;0.30;0.30;;;1.70;55.70;;;;;;4994708;28;20557;-68
2022/03/05 07:25:39;;;;;;;0.30;0.30;;;4.30;52.90;;;;;;4994577;28;20181;-67
2022/03/05 07:28:06;;;;;;;0.38;0.38;;;6.40;45.80;;;;;;4994518;28;20252;-67
2022/03/05 07:30:32;;;;;;;0.30;0.30;;;8.10;41.60;;;;;;4994551;28;20172;-67
2022/03/05 07:32:57;;;;;;;0.40;0.40;;;9.00;36.40;;;;;;4994458;28;20194;-68
2022/03/05 07:35:23;;;;;;;0.30;0.30;;;9.30;34.40;;;;;;4994362;28;20172;-68
2022/03/05 07:37:49;;;;;;;0.87;0.87;;;10.20;32.90;;;;;;4994320;28;20178;-68
2022/03/05 07:40:14;;;;;;;0.30;0.30;;;11.50;30.20;;;;;;4994054;28;20209;-68
2022/03/05 07:42:40;;;;;;;0.80;0.80;;;12.80;28.50;;;;;;4994247;28;20187;-68
2022/03/05 07:45:06;;;;;;;0.30;0.30;;;13.70;27.00;;;;;;4994280;28;20661;-68
2022/03/05 07:47:32;;;;;;;0.70;0.70;;;14.60;26.10;;;;;;4994407;28;20184;-68
2022/03/05 07:49:58;;;;;;;0.30;0.30;;;14.90;25.40;;;;;;4994173;28;20169;-68
2022/03/05 07:52:23;;;;;;;0.30;0.30;;;15.10;25.00;;;;;;4994333;28;20641;-68
2022/03/05 07:54:49;;;;;;;0.30;0.30;;;15.60;24.40;;;;;;4994218;28;20449;-69
2022/03/05 07:57:15;;;;;;;0.30;0.30;;;16.20;24.30;;;;;;4976746;28;20183;-69
2022/03/05 07:59:40;;;;;;;0.60;0.60;;;16.80;24.00;;;;;;4994144;28;20200;-68
2022/03/05 08:02:07;;;;;;;0.30;0.30;;;17.00;23.40;;;;;;4994081;28;20657;-69
2022/03/05 08:04:33;;;;;;;0.40;0.40;;;17.70;23.00;;;;;;4993950;28;20211;-69
2022/03/05 08:06:58;;;;;;;0.30;0.30;;;18.20;22.80;;;;;;4994207;28;20822;-68
2022/03/05 08:09:24;;;;;;;0.30;0.30;;;18.70;22.10;;;;;;4993954;28;20195;-69
2022/03/05 08:11:49;;;;;;;0.30;0.30;;;19.00;21.00;;;;;;4993794;28;20184;-68
2022/03/05 08:14:15;;;;;;;0.40;0.40;;;18.90;21.00;;;;;;4993879;28;20197;-69
2022/03/05 08:16:41;;;;;;;0.30;0.30;;;19.10;20.70;;;;;;4994076;28;20228;-69
2022/03/05 08:19:06;;;;;;;0.30;0.30;;;18.00;20.50;;;;;;4993992;28;20168;-68
2022/03/05 08:21:33;;;;;;;0.30;0.30;;;17.70;20.70;;;;;;4993690;28;20251;-69
2022/03/05 08:23:58;;;;;;;0.40;0.40;;;18.10;20.60;;;;;;4993802;28;20186;-68
2022/03/05 08:26:24;;;;;;;0.40;0.40;;;18.10;20.40;;;;;;4994953;28;20433;-69
2022/03/05 08:28:50;;;;;;;0.30;0.30;;;18.70;20.60;;;;;;4997955;28;20578;-69
2022/03/05 08:31:16;;;;;;;0.30;0.30;;;18.50;20.10;;;;;;4997537;28;20450;-69
2022/03/05 08:33:42;;;;;;;0.47;0.47;;;16.60;20.40;;;;;;4997560;28;20199;-68
2022/03/05 08:36:08;;;;;;;0.30;0.30;;;16.40;20.80;;;;;;4997992;28;20180;-68
2022/03/05 08:38:34;;;;;;;0.30;0.30;;;16.90;21.00;;;;;;4997585;28;20414;-68
2022/03/05 08:41:01;;;;;;;0.30;0.30;;;17.40;20.60;;;;;;4997279;28;20224;-68
2022/03/05 08:43:27;;;;;;;0.37;0.37;;;17.10;20.40;;;;;;4997467;28;20427;-68
2022/03/05 08:45:53;;;;;;;0.33;0.33;;;14.40;20.70;;;;;;4997401;28;20469;-68
2022/03/05 08:48:19;;;;;;;0.30;0.30;;;14.30;22.30;;;;;;4997459;28;20429;-68
2022/03/05 08:50:45;;;;;;;0.93;0.60;;;14.60;22.10;;;;;;4997457;28;20986;-69
2022/03/05 08:53:11;;;;;;;0.30;0.30;;;14.20;21.70;;;;;;4997182;28;20429;-68
2022/03/05 08:55:36;;;;;;;0.40;0.40;;;12.90;22.60;;;;;;4997247;28;20440;-68
2022/03/05 08:58:02;;;;;;;1.20;1.13;;;14.80;23.10;;;;;;4997464;28;20173;-69
2022/03/05 09:00:28;;;;;;;0.30;0.30;;;17.00;21.50;;;;;;4997206;28;20205;-67
2022/03/05 09:02:54;;;;;;;0.40;0.40;;;18.20;20.20;;;;;;4997294;28;20219;-68
2022/03/05 09:05:20;;;;;;;0.30;0.30;;;17.70;20.00;;;;;;4997128;28;20466;-68
2022/03/05 09:07:46;;;;;;;0.40;0.40;;;16.70;20.40;;;;;;4979703;28;20587;-69
2022/03/05 09:10:12;;;;;;;0.30;0.30;;;15.90;20.70;;;;;;4996912;28;20494;-68
2022/03/05 09:12:39;;;;;;;0.40;0.40;;;16.00;21.70;;;;;;4996943;28;20515;-68
2022/03/05 09:15:06;;;;;;;0.30;0.30;;;16.00;20.60;;;;;;4997532;28;20399;-68
2022/03/05 09:17:31;;;;;;;0.30;0.30;;;15.60;21.10;;;;;;4996956;28;20886;-68
2022/03/05 09:19:58;;;;;;;0.40;0.40;;;15.00;21.00;;;;;;4996726;28;20451;-69
2022/03/05 09:22:24;;;;;;;0.30;0.30;;;15.20;21.50;;;;;;4997038;28;20188;-69
2022/03/05 09:24:50;;;;;;;0.30;0.30;;;17.20;21.60;;;;;;4996655;28;20489;-68
2022/03/05 09:27:15;;;;;;;0.30;0.30;;;19.10;20.20;;;;;;4996815;28;20169;-67
2022/03/05 09:29:41;;;;;;;0.30;0.30;;;18.90;19.00;;;;;;4979409;28;20418;-68
2022/03/05 09:32:08;;;;;;;0.30;0.30;;;18.40;19.30;;;;;;4996472;28;20256;-68
2022/03/05 09:34:35;;;;;;;0.30;0.30;;;19.20;19.40;;;;;;4996494;28;20423;-70
2022/03/05 09:37:00;;;;;;;0.30;0.30;;;18.80;19.20;;;;;;4996012;28;20490;-68
2022/03/05 09:39:26;;;;;;;0.40;0.40;;;18.50;19.40;;;;;;4996513;28;20877;-69
2022/03/05 09:41:53;;;;;;;0.30;0.30;;;18.90;19.90;;;;;;4978937;28;20552;-69
2022/03/05 09:44:19;;;;;;;1.03;1.03;;;19.30;19.10;;;;;;4996275;28;20184;-68
2022/03/05 09:46:46;;;;;;;0.30;0.30;;;20.50;19.00;;;;;;4996313;28;20406;-68
2022/03/05 09:49:13;;;;;;;0.30;0.30;;;20.90;18.30;;;;;;4996304;28;20396;-70
2022/03/05 09:51:38;;;;;;;0.30;0.30;;;21.70;18.00;;;;;;4996166;28;20413;-70
2022/03/05 09:54:04;;;;;;;0.30;0.30;;;21.60;17.10;;;;;;4996110;28;20474;-70
2022/03/05 09:56:30;;;;;;;0.40;0.40;;;20.80;17.50;;;;;;4996387;28;20207;-69
2022/03/05 09:58:56;;;;;;;0.30;0.30;;;20.60;17.70;;;;;;4996315;28;20176;-69
2022/03/05 10:01:22;;;;;;;0.30;0.30;;;19.70;18.20;;;;;;4995861;28;20199;-68
2022/03/05 10:03:57;;;;;;;0.30;0.30;;;20.00;18.60;;;;;;4978494;28;20436;-69
2022/03/05 10:06:27;;;;;;;0.33;0.33;;;21.00;18.50;;;;;;4978551;28;20415;-68
2022/03/05 10:08:55;;;;;;;0.40;0.40;;;21.80;17.50;;;;;;4996063;28;20427;-69
2022/03/05 10:11:40;;;;;;;0.53;0.53;;;21.50;17.10;;;;;;4978136;28;21035;-70
2022/03/05 10:14:18;;;;;;;0.50;0.50;;;21.40;17.60;;;;;;4995910;28;20430;-68
2022/03/05 10:16:44;;;;;;;0.40;0.40;;;21.30;17.50;;;;;;4995858;28;20414;-68
2022/03/05 10:19:21;;;;;;;1.10;1.10;;;21.40;17.20;;;;;;4995877;28;20408;-68
2022/03/05 10:21:57;;;;;;;0.40;0.40;;;21.10;17.30;;;;;;4995639;28;20399;-69
2022/03/05 10:24:39;;;;;;;0.53;0.53;;;22.10;17.90;;;;;;4995827;28;20448;-69
2022/03/05 10:27:08;;;;;;;2.30;2.20;;;21.40;17.40;;;;;;4995595;28;20410;-70
2022/03/05 10:29:35;;;;;;;0.30;0.30;;;20.60;18.70;;;;;;4995632;28;20403;-69
2022/03/05 10:32:02;;;;;;;0.83;0.83;;;20.20;18.50;;;;;;4995503;28;20411;-69
2022/03/05 10:34:50;;;;;;;0.30;0.30;;;19.90;18.10;;;;;;4995980;28;20443;-69
2022/03/05 10:37:16;;;;;;;0.40;0.40;;;19.30;18.20;;;;;;4995393;28;20408;-68
2022/03/05 10:39:42;;;;;;;0.30;0.30;;;18.50;19.20;;;;;;4995370;28;20963;-69
2022/03/05 10:42:22;;;;;;;0.30;0.30;;;17.70;18.70;;;;;;4995213;28;20407;-69
2022/03/05 10:45:08;;;;;;;0.40;0.40;;;17.80;19.60;;;;;;4995218;28;20227;-69
2022/03/05 10:47:42;;;;;;;0.40;0.40;;;17.30;20.10;;;;;;4995432;28;20499;-68
2022/03/05 10:50:28;;;;;;;0.30;0.30;;;18.40;19.10;;;;;;4976744;28;20419;-69
2022/03/05 10:53:02;;;;;;;0.30;0.30;;;19.20;18.90;;;;;;4995236;28;20426;-70
2022/03/05 10:55:35;;;;;;;0.40;0.40;;;19.20;17.80;;;;;;4995032;28;20411;-68
2022/03/05 10:58:16;;;;;;;0.30;0.30;;;18.20;19.10;;;;;;4995059;28;20770;-69
2022/03/05 11:00:43;;;;;;;0.77;0.77;;;17.90;18.10;;;;;;4994899;28;20963;-68
2022/03/05 11:03:08;;;;;;;0.30;0.30;;;17.70;18.20;;;;;;4995027;28;20424;-69
2022/03/05 11:05:36;;;;;;;0.30;0.30;;;18.00;18.60;;;;;;4994913;28;20411;-70
2022/03/05 11:08:04;;;;;;;0.40;0.40;;;18.00;19.20;;;;;;4994995;28;20172;-69
2022/03/05 11:10:30;;;;;;;0.50;0.50;;;17.50;19.00;;;;;;4995094;28;20920;-70
2022/03/05 11:12:59;;;;;;;0.40;0.40;;;16.10;18.30;;;;;;4994567;28;20505;-69
2022/03/05 11:15:27;;;;;;;0.30;0.30;;;15.00;19.00;;;;;;4977262;28;20961;-69
2022/03/05 11:17:53;;;;;;;0.30;0.30;;;14.30;19.80;;;;;;4995113;28;20444;-69
2022/03/05 11:20:19;;;;;;;0.30;0.30;;;13.70;19.70;;;;;;4994541;28;20449;-68
2022/03/05 11:22:49;;;;;;;0.30;0.30;;;12.80;23.00;;;;;;4994907;28;20470;-68
2022/03/05 11:25:19;;;;;;;0.30;0.30;;;12.80;21.10;;;;;;4993202;28;20406;-69
2022/03/05 11:28:17;;;;;;;0.95;0.95;;;12.20;21.60;;;;;;4994550;28;20490;-69
2022/03/05 11:30:44;;;;;;;0.30;0.30;;;11.70;24.80;;;;;;4993825;28;20223;-69
2022/03/05 11:33:20;;;;;;;0.30;0.30;;;10.70;23.90;;;;;;4994297;28;20203;-69
2022/03/05 11:35:46;;;;;;;0.40;0.40;;;9.90;25.60;;;;;;4994620;28;20172;-69
2022/03/05 11:38:32;;;;;;;0.30;0.30;;;9.10;26.50;;;;;;4994401;28;20571;-68
2022/03/05 11:40:58;;;;;;;0.30;0.30;;;9.10;26.50;;;;;;4994129;28;20202;-68
2022/03/05 11:43:25;;;;;;;0.30;0.30;;;9.30;26.10;;;;;;4994349;28;20196;-68
2022/03/05 11:46:04;;;;;;;0.40;0.40;;;9.30;26.30;;;;;;4994447;28;20745;-68
2022/03/05 11:48:36;;;;;;;0.40;0.40;;;9.50;26.70;;;;;;4994614;28;20168;-69
2022/03/05 11:51:08;;;;;;;1.38;1.38;;;9.50;26.50;;;;;;4994166;28;20215;-68
2022/03/05 11:53:34;;;;;;;0.40;0.40;;;9.40;26.20;;;;;;4994212;28;20540;-69
2022/03/05 11:56:21;;;;;;;1.40;1.40;;;9.50;26.80;;;;;;4994060;28;20262;-69
2022/03/05 11:58:47;;;;;;;0.40;0.40;;;9.50;27.40;;;;;;4994355;28;20171;-69
2022/03/05 12:01:32;;;;;;;0.30;0.30;;;9.60;26.80;;;;;;4993684;28;20218;-69
2022/03/05 12:04:03;;;;;;;0.40;0.40;;;9.40;26.50;;;;;;4993972;28;20203;-68
2022/03/05 12:06:41;;;;;;;0.30;0.30;;;9.40;26.50;;;;;;4994019;28;20184;-68
2022/03/05 12:09:20;;;;;;;0.40;0.40;;;9.30;26.20;;;;;;4994226;28;20176;-68
2022/03/05 12:11:55;;;;;;;0.40;0.40;;;9.50;26.70;;;;;;4993739;28;20186;-68
2022/03/05 12:14:21;;;;;;;0.30;0.30;;;9.80;27.00;;;;;;4994053;28;20199;-69
2022/03/05 12:16:48;;;;;;;0.40;0.40;;;9.70;26.70;;;;;;4993918;28;20182;-69
2022/03/05 12:19:15;;;;;;;0.30;0.30;;;9.50;26.40;;;;;;4994041;28;20240;-68
2022/03/05 12:21:41;;;;;;;0.30;0.30;;;8.80;27.10;;;;;;4993873;28;20262;-69
2022/03/05 12:24:10;;;;;;;0.30;0.30;;;8.70;27.20;;;;;;4993835;28;20718;-69
2022/03/05 12:26:43;;;;;;;0.30;0.30;;;8.90;28.20;;;;;;4993895;28;20175;-69
2022/03/05 12:29:10;;;;;;;0.40;0.40;;;8.90;27.60;;;;;;4994020;28;20520;-68
2022/03/05 12:31:44;;;;;;;0.30;0.30;;;9.10;27.30;;;;;;4993656;28;20182;-68
2022/03/05 12:34:11;;;;;;;0.40;0.40;;;9.10;26.60;;;;;;4993718;28;20206;-68
2022/03/05 12:36:47;;;;;;;0.40;0.40;;;9.30;29.20;;;;;;4993965;28;20190;-69
2022/03/05 12:39:14;;;;;;;0.30;0.30;;;9.20;28.40;;;;;;4993601;28;20251;-68
2022/03/05 12:41:45;;;;;;;0.40;0.40;;;8.70;26.80;;;;;;4993482;28;20316;-68
2022/03/05 12:44:11;;;;;;;0.38;0.38;;;8.50;30.70;;;;;;4994031;28;20191;-69
2022/03/05 12:46:37;;;;;;;0.40;0.40;;;8.50;34.20;;;;;;4993571;28;20184;-68
2022/03/05 12:49:07;;;;;;;0.40;0.40;;;8.40;30.80;;;;;;4993941;28;20258;-68
2022/03/05 12:51:33;;;;;;;0.40;0.40;;;8.60;28.40;;;;;;4993432;28;20263;-68
2022/03/05 12:54:01;;;;;;;0.60;0.60;;;8.50;26.30;;;;;;4993569;28;20201;-68
2022/03/05 12:56:27;;;;;;;0.30;0.30;;;8.40;25.70;;;;;;4992384;28;20202;-67